sensor_id;sensor_type;location;lat;lon;timestamp;pressure;altitude;pressure_sealevel;temperature;humidity
33496;BME280;19836;55.812;37.560;2022-08-03T00:00:06;99661.34;;;19.57;62.54
33496;BME280;19836;55.812;37.560;2022-08-03T00:02:38;99657.44;;;19.61;62.61
33496;BME280;19836;55.812;37.560;2022-08-03T00:05:04;99658.44;;;19.60;62.56
33496;BME280;19836;55.812;37.560;2022-08-03T00:07:33;99658.53;;;19.59;62.51
33496;BME280;19836;55.812;37.560;2022-08-03T00:09:59;99663.31;;;19.55;62.94
33496;BME280;19836;55.812;37.560;2022-08-03T00:12:25;99657.88;;;19.55;62.78
33496;BME280;19836;55.812;37.560;2022-08-03T00:14:51;99656.44;;;19.50;63.03
33496;BME280;19836;55.812;37.560;2022-08-03T00:17:17;99661.09;;;19.48;62.85
33496;BME280;19836;55.812;37.560;2022-08-03T00:19:43;99662.00;;;19.48;62.71
33496;BME280;19836;55.812;37.560;2022-08-03T00:22:08;99669.16;;;19.49;63.02
33496;BME280;19836;55.812;37.560;2022-08-03T00:24:34;99662.00;;;19.48;62.96
33496;BME280;19836;55.812;37.560;2022-08-03T00:27:01;99667.44;;;19.48;62.84
33496;BME280;19836;55.812;37.560;2022-08-03T00:29:26;99666.63;;;19.46;62.89
33496;BME280;19836;55.812;37.560;2022-08-03T00:31:52;99662.19;;;19.45;62.87
33496;BME280;19836;55.812;37.560;2022-08-03T00:34:18;99661.44;;;19.43;62.98
33496;BME280;19836;55.812;37.560;2022-08-03T00:36:44;99666.97;;;19.42;62.77
33496;BME280;19836;55.812;37.560;2022-08-03T00:39:10;99663.47;;;19.40;62.76
33496;BME280;19836;55.812;37.560;2022-08-03T00:41:39;99654.75;;;19.35;62.94
33496;BME280;19836;55.812;37.560;2022-08-03T00:44:04;99654.97;;;19.32;62.85
33496;BME280;19836;55.812;37.560;2022-08-03T00:46:30;99655.81;;;19.32;62.80
33496;BME280;19836;55.812;37.560;2022-08-03T00:48:56;99652.34;;;19.30;62.96
33496;BME280;19836;55.812;37.560;2022-08-03T00:51:22;99660.59;;;19.29;63.23
33496;BME280;19836;55.812;37.560;2022-08-03T00:53:49;99656.22;;;19.26;63.00
33496;BME280;19836;55.812;37.560;2022-08-03T00:56:16;99654.59;;;19.24;63.20
33496;BME280;19836;55.812;37.560;2022-08-03T00:58:45;99652.16;;;19.19;63.25
33496;BME280;19836;55.812;37.560;2022-08-03T01:01:12;99649.63;;;19.16;63.52
33496;BME280;19836;55.812;37.560;2022-08-03T01:03:38;99650.72;;;19.14;63.57
33496;BME280;19836;55.812;37.560;2022-08-03T01:06:18;99645.28;;;19.14;63.88
33496;BME280;19836;55.812;37.560;2022-08-03T01:09:18;99646.16;;;19.14;63.61
33496;BME280;19836;55.812;37.560;2022-08-03T01:11:52;99648.09;;;19.12;63.64
33496;BME280;19836;55.812;37.560;2022-08-03T01:14:24;99641.81;;;19.12;64.00
33496;BME280;19836;55.812;37.560;2022-08-03T01:19:45;99644.81;;;19.07;64.24
33496;BME280;19836;55.812;37.560;2022-08-03T01:22:44;99652.00;;;19.08;64.27
33496;BME280;19836;55.812;37.560;2022-08-03T01:25:20;99645.19;;;19.15;63.98
33496;BME280;19836;55.812;37.560;2022-08-03T01:30:35;99653.25;;;19.03;64.01
33496;BME280;19836;55.812;37.560;2022-08-03T01:33:05;99650.56;;;19.03;64.35
33496;BME280;19836;55.812;37.560;2022-08-03T01:35:53;99652.59;;;18.99;64.35
33496;BME280;19836;55.812;37.560;2022-08-03T01:38:27;99656.28;;;18.98;64.45
33496;BME280;19836;55.812;37.560;2022-08-03T01:40:55;99661.72;;;18.98;64.66
33496;BME280;19836;55.812;37.560;2022-08-03T01:43:26;99669.09;;;18.96;64.76
33496;BME280;19836;55.812;37.560;2022-08-03T01:45:55;99659.19;;;18.95;64.87
33496;BME280;19836;55.812;37.560;2022-08-03T01:48:22;99663.66;;;18.96;64.84
33496;BME280;19836;55.812;37.560;2022-08-03T01:50:48;99658.44;;;18.93;64.91
33496;BME280;19836;55.812;37.560;2022-08-03T01:53:16;99661.16;;;18.93;64.75
33496;BME280;19836;55.812;37.560;2022-08-03T01:55:48;99669.31;;;18.93;64.90
33496;BME280;19836;55.812;37.560;2022-08-03T01:58:17;99661.91;;;18.95;64.78
33496;BME280;19836;55.812;37.560;2022-08-03T02:00:48;99658.44;;;18.93;64.85
33496;BME280;19836;55.812;37.560;2022-08-03T02:03:15;99659.38;;;18.92;65.06
33496;BME280;19836;55.812;37.560;2022-08-03T02:05:43;99662.00;;;18.94;65.03
33496;BME280;19836;55.812;37.560;2022-08-03T02:08:12;99659.28;;;18.94;65.14
33496;BME280;19836;55.812;37.560;2022-08-03T02:10:40;99654.94;;;18.91;65.32
33496;BME280;19836;55.812;37.560;2022-08-03T02:13:08;99662.91;;;18.94;65.07
33496;BME280;19836;55.812;37.560;2022-08-03T02:15:37;99664.72;;;18.94;65.20
33496;BME280;19836;55.812;37.560;2022-08-03T02:18:05;99666.47;;;18.95;65.23
33496;BME280;19836;55.812;37.560;2022-08-03T02:20:33;99672.59;;;18.98;64.98
33496;BME280;19836;55.812;37.560;2022-08-03T02:23:02;99674.09;;;19.02;65.08
33496;BME280;19836;55.812;37.560;2022-08-03T02:25:29;99667.50;;;19.06;65.16
33496;BME280;19836;55.812;37.560;2022-08-03T02:28:17;99668.97;;;19.12;65.16
33496;BME280;19836;55.812;37.560;2022-08-03T02:30:47;99678.75;;;19.14;65.00
33496;BME280;19836;55.812;37.560;2022-08-03T02:33:22;99672.25;;;19.17;65.04
33496;BME280;19836;55.812;37.560;2022-08-03T02:35:50;99675.81;;;19.17;65.15
33496;BME280;19836;55.812;37.560;2022-08-03T02:38:19;99671.38;;;19.16;65.09
33496;BME280;19836;55.812;37.560;2022-08-03T02:40:45;99675.06;;;19.15;65.03
33496;BME280;19836;55.812;37.560;2022-08-03T02:43:19;99673.78;;;19.21;65.30
33496;BME280;19836;55.812;37.560;2022-08-03T02:45:48;99675.56;;;19.22;65.03
33496;BME280;19836;55.812;37.560;2022-08-03T02:48:21;99669.91;;;19.25;65.19
33496;BME280;19836;55.812;37.560;2022-08-03T02:50:50;99664.38;;;19.26;65.40
33496;BME280;19836;55.812;37.560;2022-08-03T02:53:18;99666.69;;;19.32;65.21
33496;BME280;19836;55.812;37.560;2022-08-03T02:55:46;99680.84;;;19.37;65.16
33496;BME280;19836;55.812;37.560;2022-08-03T02:58:13;99685.00;;;19.43;65.13
33496;BME280;19836;55.812;37.560;2022-08-03T03:00:43;99687.41;;;19.47;65.09
33496;BME280;19836;55.812;37.560;2022-08-03T03:03:11;99684.50;;;19.50;65.30
33496;BME280;19836;55.812;37.560;2022-08-03T03:05:39;99688.75;;;19.54;65.16
33496;BME280;19836;55.812;37.560;2022-08-03T03:08:06;99683.09;;;19.57;65.13
33496;BME280;19836;55.812;37.560;2022-08-03T03:10:32;99687.25;;;19.63;65.11
33496;BME280;19836;55.812;37.560;2022-08-03T03:13:00;99691.63;;;19.65;65.30
33496;BME280;19836;55.812;37.560;2022-08-03T03:15:27;99684.91;;;19.71;65.14
33496;BME280;19836;55.812;37.560;2022-08-03T03:17:54;99688.94;;;19.78;65.17
33496;BME280;19836;55.812;37.560;2022-08-03T03:20:21;99693.84;;;19.85;64.97
33496;BME280;19836;55.812;37.560;2022-08-03T03:22:49;99691.59;;;19.92;64.96
33496;BME280;19836;55.812;37.560;2022-08-03T03:28:41;99695.66;;;20.11;65.03
33496;BME280;19836;55.812;37.560;2022-08-03T03:57:15;99695.50;;;20.89;63.17
33496;BME280;19836;55.812;37.560;2022-08-03T04:03:12;99694.78;;;20.98;62.63
33496;BME280;19836;55.812;37.560;2022-08-03T04:05:46;99700.25;;;20.98;62.52
33496;BME280;19836;55.812;37.560;2022-08-03T04:09:21;99701.75;;;21.02;62.31
33496;BME280;19836;55.812;37.560;2022-08-03T04:12:11;99703.09;;;21.09;61.97
33496;BME280;19836;55.812;37.560;2022-08-03T04:14:39;99707.81;;;21.18;62.02
33496;BME280;19836;55.812;37.560;2022-08-03T04:17:07;99712.06;;;21.22;61.73
33496;BME280;19836;55.812;37.560;2022-08-03T04:19:41;99711.28;;;21.33;61.60
33496;BME280;19836;55.812;37.560;2022-08-03T04:22:10;99708.00;;;21.40;61.67
33496;BME280;19836;55.812;37.560;2022-08-03T04:24:50;99713.50;;;21.51;61.65
33496;BME280;19836;55.812;37.560;2022-08-03T04:27:20;99710.31;;;21.57;61.10
33496;BME280;19836;55.812;37.560;2022-08-03T04:29:48;99713.91;;;21.70;61.03
33496;BME280;19836;55.812;37.560;2022-08-03T04:32:19;99707.25;;;21.74;60.66
33496;BME280;19836;55.812;37.560;2022-08-03T04:34:45;99709.81;;;21.76;60.61
33496;BME280;19836;55.812;37.560;2022-08-03T04:40:14;99707.16;;;21.87;60.83
33496;BME280;19836;55.812;37.560;2022-08-03T04:42:41;99702.22;;;21.92;60.53
33496;BME280;19836;55.812;37.560;2022-08-03T04:45:11;99717.03;;;22.00;60.54
33496;BME280;19836;55.812;37.560;2022-08-03T04:47:37;99722.75;;;22.08;60.50
33496;BME280;19836;55.812;37.560;2022-08-03T04:50:04;99720.31;;;22.16;60.77
33496;BME280;19836;55.812;37.560;2022-08-03T04:52:30;99706.94;;;22.24;60.49
33496;BME280;19836;55.812;37.560;2022-08-03T04:54:57;99710.81;;;22.33;60.17
33496;BME280;19836;55.812;37.560;2022-08-03T04:57:23;99706.28;;;22.44;59.70
33496;BME280;19836;55.812;37.560;2022-08-03T04:59:51;99710.88;;;22.55;59.29
33496;BME280;19836;55.812;37.560;2022-08-03T05:02:19;99713.88;;;22.63;59.00
33496;BME280;19836;55.812;37.560;2022-08-03T05:04:46;99708.78;;;22.69;58.90
33496;BME280;19836;55.812;37.560;2022-08-03T05:07:13;99701.09;;;22.74;58.75
33496;BME280;19836;55.812;37.560;2022-08-03T05:09:39;99710.53;;;22.81;58.35
33496;BME280;19836;55.812;37.560;2022-08-03T05:12:05;99708.19;;;22.88;58.16
33496;BME280;19836;55.812;37.560;2022-08-03T05:14:34;99712.91;;;22.97;58.05
33496;BME280;19836;55.812;37.560;2022-08-03T05:17:12;99710.78;;;23.11;57.96
33496;BME280;19836;55.812;37.560;2022-08-03T05:19:37;99716.88;;;23.26;57.65
33496;BME280;19836;55.812;37.560;2022-08-03T05:22:03;99714.13;;;23.37;57.45
33496;BME280;19836;55.812;37.560;2022-08-03T05:24:29;99716.97;;;23.46;57.16
33496;BME280;19836;55.812;37.560;2022-08-03T05:26:55;99709.00;;;23.54;57.06
33496;BME280;19836;55.812;37.560;2022-08-03T05:29:21;99723.78;;;23.63;56.71
33496;BME280;19836;55.812;37.560;2022-08-03T05:31:47;99721.66;;;23.66;56.25
33496;BME280;19836;55.812;37.560;2022-08-03T05:34:13;99716.41;;;23.74;56.17
33496;BME280;19836;55.812;37.560;2022-08-03T05:36:39;99723.97;;;23.82;55.85
33496;BME280;19836;55.812;37.560;2022-08-03T05:39:04;99729.78;;;23.88;55.74
33496;BME280;19836;55.812;37.560;2022-08-03T05:41:30;99723.81;;;23.94;55.93
33496;BME280;19836;55.812;37.560;2022-08-03T05:43:56;99732.28;;;24.02;55.42
33496;BME280;19836;55.812;37.560;2022-08-03T05:46:22;99725.25;;;24.09;55.18
33496;BME280;19836;55.812;37.560;2022-08-03T05:48:48;99722.50;;;24.20;54.56
33496;BME280;19836;55.812;37.560;2022-08-03T05:51:14;99717.06;;;24.30;54.58
33496;BME280;19836;55.812;37.560;2022-08-03T05:53:41;99728.84;;;24.41;54.77
33496;BME280;19836;55.812;37.560;2022-08-03T05:56:08;99729.03;;;24.49;54.56
33496;BME280;19836;55.812;37.560;2022-08-03T05:58:34;99718.53;;;24.54;54.25
33496;BME280;19836;55.812;37.560;2022-08-03T06:01:00;99730.00;;;24.59;54.18
33496;BME280;19836;55.812;37.560;2022-08-03T06:03:26;99722.13;;;24.66;54.13
33496;BME280;19836;55.812;37.560;2022-08-03T06:05:55;99718.69;;;24.73;53.74
33496;BME280;19836;55.812;37.560;2022-08-03T06:08:22;99724.97;;;24.85;53.45
33496;BME280;19836;55.812;37.560;2022-08-03T06:10:48;99717.06;;;24.91;53.25
33496;BME280;19836;55.812;37.560;2022-08-03T06:13:14;99715.66;;;24.97;52.88
33496;BME280;19836;55.812;37.560;2022-08-03T06:15:42;99726.09;;;25.03;52.34
33496;BME280;19836;55.812;37.560;2022-08-03T06:18:08;99726.25;;;25.11;52.12
33496;BME280;19836;55.812;37.560;2022-08-03T06:20:34;99723.69;;;25.19;51.99
33496;BME280;19836;55.812;37.560;2022-08-03T06:23:00;99721.31;;;25.25;51.89
33496;BME280;19836;55.812;37.560;2022-08-03T06:25:26;99728.09;;;25.31;51.89
33496;BME280;19836;55.812;37.560;2022-08-03T06:27:52;99726.81;;;25.35;51.84
33496;BME280;19836;55.812;37.560;2022-08-03T06:30:18;99721.91;;;25.38;51.41
33496;BME280;19836;55.812;37.560;2022-08-03T06:32:44;99719.34;;;25.46;51.04
33496;BME280;19836;55.812;37.560;2022-08-03T06:35:09;99720.38;;;25.55;51.33
33496;BME280;19836;55.812;37.560;2022-08-03T06:37:49;99722.44;;;25.62;51.24
33496;BME280;19836;55.812;37.560;2022-08-03T06:40:17;99728.06;;;25.70;51.18
33496;BME280;19836;55.812;37.560;2022-08-03T06:42:44;99732.72;;;25.79;50.72
33496;BME280;19836;55.812;37.560;2022-08-03T06:45:11;99723.06;;;25.94;50.35
33496;BME280;19836;55.812;37.560;2022-08-03T06:47:39;99729.31;;;26.06;50.36
33496;BME280;19836;55.812;37.560;2022-08-03T06:50:06;99735.81;;;26.14;50.05
33496;BME280;19836;55.812;37.560;2022-08-03T06:52:33;99728.75;;;26.21;49.74
33496;BME280;19836;55.812;37.560;2022-08-03T06:54:59;99732.50;;;26.30;49.39
33496;BME280;19836;55.812;37.560;2022-08-03T06:57:25;99733.50;;;26.38;49.04
33496;BME280;19836;55.812;37.560;2022-08-03T06:59:51;99728.16;;;26.46;48.64
33496;BME280;19836;55.812;37.560;2022-08-03T07:02:17;99731.34;;;26.51;47.79
33496;BME280;19836;55.812;37.560;2022-08-03T07:04:43;99729.63;;;26.60;47.24
33496;BME280;19836;55.812;37.560;2022-08-03T07:07:09;99737.28;;;26.66;47.08
33496;BME280;19836;55.812;37.560;2022-08-03T07:09:35;99740.44;;;26.71;47.05
33496;BME280;19836;55.812;37.560;2022-08-03T07:12:02;99733.91;;;26.72;46.65
33496;BME280;19836;55.812;37.560;2022-08-03T07:14:28;99737.09;;;26.77;46.01
33496;BME280;19836;55.812;37.560;2022-08-03T07:16:54;99733.19;;;26.79;45.68
33496;BME280;19836;55.812;37.560;2022-08-03T07:19:20;99735.03;;;26.88;45.66
33496;BME280;19836;55.812;37.560;2022-08-03T07:21:46;99736.03;;;26.97;45.72
33496;BME280;19836;55.812;37.560;2022-08-03T07:24:12;99733.56;;;27.03;45.63
33496;BME280;19836;55.812;37.560;2022-08-03T07:26:38;99742.50;;;27.15;45.60
33496;BME280;19836;55.812;37.560;2022-08-03T07:29:03;99742.63;;;27.23;45.49
33496;BME280;19836;55.812;37.560;2022-08-03T07:31:30;99739.44;;;27.27;45.10
33496;BME280;19836;55.812;37.560;2022-08-03T07:33:55;99729.69;;;27.33;44.84
33496;BME280;19836;55.812;37.560;2022-08-03T07:36:21;99737.19;;;27.40;44.69
33496;BME280;19836;55.812;37.560;2022-08-03T07:38:49;99735.44;;;27.49;44.33
33496;BME280;19836;55.812;37.560;2022-08-03T07:41:15;99731.31;;;27.53;43.43
33496;BME280;19836;55.812;37.560;2022-08-03T07:43:41;99736.81;;;27.62;42.74
33496;BME280;19836;55.812;37.560;2022-08-03T07:46:07;99742.56;;;27.69;42.70
33496;BME280;19836;55.812;37.560;2022-08-03T07:48:32;99745.97;;;27.80;42.69
33496;BME280;19836;55.812;37.560;2022-08-03T07:50:58;99742.06;;;27.83;42.46
33496;BME280;19836;55.812;37.560;2022-08-03T07:53:24;99742.94;;;27.83;42.25
33496;BME280;19836;55.812;37.560;2022-08-03T07:55:50;99745.06;;;27.89;42.03
33496;BME280;19836;55.812;37.560;2022-08-03T07:58:16;99743.09;;;27.99;41.84
33496;BME280;19836;55.812;37.560;2022-08-03T08:00:47;99743.91;;;28.09;41.54
33496;BME280;19836;55.812;37.560;2022-08-03T08:03:13;99749.13;;;28.12;41.09
33496;BME280;19836;55.812;37.560;2022-08-03T08:05:39;99745.72;;;28.18;40.71
33496;BME280;19836;55.812;37.560;2022-08-03T08:08:05;99745.78;;;28.26;40.12
33496;BME280;19836;55.812;37.560;2022-08-03T08:10:31;99756.38;;;28.31;40.13
33496;BME280;19836;55.812;37.560;2022-08-03T08:12:57;99755.59;;;28.38;39.76
33496;BME280;19836;55.812;37.560;2022-08-03T08:15:23;99751.34;;;28.44;38.94
33496;BME280;19836;55.812;37.560;2022-08-03T08:17:56;99763.47;;;28.51;38.66
33496;BME280;19836;55.812;37.560;2022-08-03T08:20:30;99763.38;;;28.60;38.40
33496;BME280;19836;55.812;37.560;2022-08-03T08:23:00;99750.63;;;28.59;38.26
33496;BME280;19836;55.812;37.560;2022-08-03T08:25:28;99750.84;;;28.66;37.58
33496;BME280;19836;55.812;37.560;2022-08-03T08:27:55;99741.69;;;28.65;37.34
33496;BME280;19836;55.812;37.560;2022-08-03T08:30:21;99739.91;;;28.56;37.02
33496;BME280;19836;55.812;37.560;2022-08-03T08:32:49;99736.44;;;28.54;37.70
33496;BME280;19836;55.812;37.560;2022-08-03T08:35:16;99746.97;;;28.59;38.18
33496;BME280;19836;55.812;37.560;2022-08-03T08:37:42;99739.44;;;28.61;38.51
33496;BME280;19836;55.812;37.560;2022-08-03T08:40:09;99748.47;;;28.71;38.67
33496;BME280;19836;55.812;37.560;2022-08-03T08:42:39;99739.06;;;28.81;37.54
33496;BME280;19836;55.812;37.560;2022-08-03T08:45:05;99734.97;;;28.85;36.79
33496;BME280;19836;55.812;37.560;2022-08-03T08:47:37;99730.84;;;28.89;36.83
33496;BME280;19836;55.812;37.560;2022-08-03T08:50:03;99740.31;;;29.04;36.82
33496;BME280;19836;55.812;37.560;2022-08-03T08:52:30;99728.50;;;29.20;37.02
33496;BME280;19836;55.812;37.560;2022-08-03T08:55:00;99729.13;;;29.39;37.15
33496;BME280;19836;55.812;37.560;2022-08-03T08:57:32;99740.59;;;29.52;35.96
33496;BME280;19836;55.812;37.560;2022-08-03T09:00:00;99742.63;;;29.50;35.18
33496;BME280;19836;55.812;37.560;2022-08-03T09:02:29;99744.59;;;29.58;35.24
33496;BME280;19836;55.812;37.560;2022-08-03T09:04:57;99741.00;;;29.65;35.16
33496;BME280;19836;55.812;37.560;2022-08-03T09:07:23;99744.13;;;29.70;35.16
33496;BME280;19836;55.812;37.560;2022-08-03T09:09:49;99747.63;;;29.72;34.88
33496;BME280;19836;55.812;37.560;2022-08-03T09:12:15;99738.59;;;29.70;35.01
33496;BME280;19836;55.812;37.560;2022-08-03T09:14:41;99734.81;;;29.71;34.80
33496;BME280;19836;55.812;37.560;2022-08-03T09:17:07;99742.81;;;29.82;34.50
33496;BME280;19836;55.812;37.560;2022-08-03T09:19:34;99751.47;;;29.87;33.58
33496;BME280;19836;55.812;37.560;2022-08-03T09:24:36;99747.09;;;31.14;32.68
33496;BME280;19836;55.812;37.560;2022-08-03T09:27:05;99745.28;;;32.23;31.21
33496;BME280;19836;55.812;37.560;2022-08-03T09:29:38;99747.34;;;33.19;30.67
33496;BME280;19836;55.812;37.560;2022-08-03T09:32:04;99749.31;;;34.62;29.28
33496;BME280;19836;55.812;37.560;2022-08-03T09:34:30;99746.25;;;36.22;27.67
33496;BME280;19836;55.812;37.560;2022-08-03T09:36:57;99743.31;;;35.62;26.87
33496;BME280;19836;55.812;37.560;2022-08-03T09:39:25;99747.97;;;33.87;28.17
33496;BME280;19836;55.812;37.560;2022-08-03T09:42:13;99753.94;;;32.36;30.29
33496;BME280;19836;55.812;37.560;2022-08-03T09:44:44;99743.22;;;31.48;31.46
33496;BME280;19836;55.812;37.560;2022-08-03T09:47:13;99740.56;;;30.99;32.35
33496;BME280;19836;55.812;37.560;2022-08-03T09:49:40;99745.75;;;30.70;33.48
33496;BME280;19836;55.812;37.560;2022-08-03T09:52:18;99746.25;;;30.50;33.38
33496;BME280;19836;55.812;37.560;2022-08-03T09:54:50;99738.50;;;30.69;33.14
33496;BME280;19836;55.812;37.560;2022-08-03T09:57:21;99742.47;;;32.39;32.16
33496;BME280;19836;55.812;37.560;2022-08-03T09:59:48;99740.84;;;35.18;29.23
33496;BME280;19836;55.812;37.560;2022-08-03T10:02:22;99739.53;;;37.61;26.34
33496;BME280;19836;55.812;37.560;2022-08-03T10:04:48;99737.22;;;38.90;24.02
33496;BME280;19836;55.812;37.560;2022-08-03T10:07:20;99737.50;;;39.55;23.17
33496;BME280;19836;55.812;37.560;2022-08-03T10:09:57;99748.91;;;40.50;22.31
33496;BME280;19836;55.812;37.560;2022-08-03T10:12:24;99740.78;;;40.42;21.89
33496;BME280;19836;55.812;37.560;2022-08-03T10:14:51;99746.91;;;40.98;21.51
33496;BME280;19836;55.812;37.560;2022-08-03T10:17:18;99741.25;;;41.74;20.45
33496;BME280;19836;55.812;37.560;2022-08-03T10:19:44;99740.50;;;41.90;20.14
33496;BME280;19836;55.812;37.560;2022-08-03T10:22:17;99744.41;;;39.35;21.29
33496;BME280;19836;55.812;37.560;2022-08-03T10:24:48;99742.34;;;36.96;23.26
33496;BME280;19836;55.812;37.560;2022-08-03T10:27:17;99743.22;;;35.42;25.20
33496;BME280;19836;55.812;37.560;2022-08-03T10:29:49;99737.50;;;34.39;26.37
33496;BME280;19836;55.812;37.560;2022-08-03T10:32:29;99750.38;;;33.90;27.21
33496;BME280;19836;55.812;37.560;2022-08-03T10:35:15;99744.25;;;36.16;25.64
33496;BME280;19836;55.812;37.560;2022-08-03T10:37:43;99747.41;;;38.78;23.40
33496;BME280;19836;55.812;37.560;2022-08-03T10:40:14;99747.88;;;40.63;21.64
33496;BME280;19836;55.812;37.560;2022-08-03T10:42:42;99741.72;;;41.59;20.40
33496;BME280;19836;55.812;37.560;2022-08-03T10:45:18;99752.00;;;42.23;19.78
33496;BME280;19836;55.812;37.560;2022-08-03T10:47:46;99754.91;;;40.54;20.23
33496;BME280;19836;55.812;37.560;2022-08-03T10:50:13;99747.75;;;39.19;21.54
33496;BME280;19836;55.812;37.560;2022-08-03T10:53:01;99749.00;;;37.60;22.68
33496;BME280;19836;55.812;37.560;2022-08-03T10:55:37;99749.94;;;35.95;24.23
33496;BME280;19836;55.812;37.560;2022-08-03T10:58:51;99749.84;;;34.72;26.25
33496;BME280;19836;55.812;37.560;2022-08-03T11:06:26;99756.22;;;33.95;28.21
33496;BME280;19836;55.812;37.560;2022-08-03T11:09:16;99756.25;;;36.70;25.27
33496;BME280;19836;55.812;37.560;2022-08-03T11:11:44;99751.06;;;36.54;24.92
33496;BME280;19836;55.812;37.560;2022-08-03T11:14:12;99747.66;;;35.37;26.00
33496;BME280;19836;55.812;37.560;2022-08-03T11:16:50;99750.84;;;35.34;26.00
33496;BME280;19836;55.812;37.560;2022-08-03T11:19:48;99751.03;;;37.97;23.38
33496;BME280;19836;55.812;37.560;2022-08-03T11:22:15;99735.94;;;38.55;22.19
33496;BME280;19836;55.812;37.560;2022-08-03T11:27:15;99749.97;;;35.61;24.76
33496;BME280;19836;55.812;37.560;2022-08-03T11:30:05;99750.38;;;34.40;26.47
33496;BME280;19836;55.812;37.560;2022-08-03T11:35:30;99738.09;;;33.41;27.70
33496;BME280;19836;55.812;37.560;2022-08-03T11:43:00;99742.25;;;40.15;22.14
33496;BME280;19836;55.812;37.560;2022-08-03T11:45:27;99740.56;;;41.14;20.80
33496;BME280;19836;55.812;37.560;2022-08-03T11:47:54;99744.28;;;41.49;19.56
33496;BME280;19836;55.812;37.560;2022-08-03T11:50:21;99749.88;;;40.74;19.62
33496;BME280;19836;55.812;37.560;2022-08-03T11:52:48;99748.34;;;39.52;20.36
33496;BME280;19836;55.812;37.560;2022-08-03T11:55:16;99738.19;;;37.70;21.96
33496;BME280;19836;55.812;37.560;2022-08-03T11:57:44;99734.19;;;37.01;23.04
33496;BME280;19836;55.812;37.560;2022-08-03T12:03:06;99739.69;;;35.27;24.70
33496;BME280;19836;55.812;37.560;2022-08-03T12:05:37;99736.50;;;34.46;25.66
33496;BME280;19836;55.812;37.560;2022-08-03T12:08:04;99734.16;;;33.79;26.77
33496;BME280;19836;55.812;37.560;2022-08-03T12:10:31;99731.78;;;33.32;27.19
33496;BME280;19836;55.812;37.560;2022-08-03T12:12:58;99736.78;;;33.00;27.78
33496;BME280;19836;55.812;37.560;2022-08-03T12:15:29;99738.56;;;32.70;28.42
33496;BME280;19836;55.812;37.560;2022-08-03T12:17:56;99747.94;;;32.47;29.01
33496;BME280;19836;55.812;37.560;2022-08-03T12:20:24;99741.84;;;32.29;29.47
33496;BME280;19836;55.812;37.560;2022-08-03T12:22:50;99740.00;;;32.13;30.31
33496;BME280;19836;55.812;37.560;2022-08-03T12:25:22;99736.28;;;31.98;31.25
33496;BME280;19836;55.812;37.560;2022-08-03T12:27:49;99737.53;;;31.88;31.60
33496;BME280;19836;55.812;37.560;2022-08-03T12:30:15;99737.22;;;31.83;32.53
33496;BME280;19836;55.812;37.560;2022-08-03T12:32:42;99738.47;;;31.72;33.46
33496;BME280;19836;55.812;37.560;2022-08-03T12:35:08;99729.69;;;31.52;34.15
33496;BME280;19836;55.812;37.560;2022-08-03T12:37:35;99732.19;;;31.40;34.85
33496;BME280;19836;55.812;37.560;2022-08-03T12:40:02;99738.22;;;31.35;35.22
33496;BME280;19836;55.812;37.560;2022-08-03T12:42:35;99739.13;;;31.27;35.87
33496;BME280;19836;55.812;37.560;2022-08-03T12:45:24;99738.09;;;31.29;36.32
33496;BME280;19836;55.812;37.560;2022-08-03T12:47:57;99739.50;;;31.25;36.50
33496;BME280;19836;55.812;37.560;2022-08-03T12:50:25;99741.91;;;31.19;37.14
33496;BME280;19836;55.812;37.560;2022-08-03T12:52:51;99736.22;;;31.21;37.46
33496;BME280;19836;55.812;37.560;2022-08-03T12:55:21;99737.78;;;31.24;37.21
33496;BME280;19836;55.812;37.560;2022-08-03T12:57:47;99742.09;;;31.26;36.93
33496;BME280;19836;55.812;37.560;2022-08-03T13:00:15;99748.31;;;31.28;36.89
33496;BME280;19836;55.812;37.560;2022-08-03T13:02:42;99729.81;;;31.29;36.74
33496;BME280;19836;55.812;37.560;2022-08-03T13:05:10;99740.53;;;31.24;37.17
33496;BME280;19836;55.812;37.560;2022-08-03T13:07:44;99737.91;;;31.14;37.87
33496;BME280;19836;55.812;37.560;2022-08-03T13:10:15;99738.63;;;31.00;38.42
33496;BME280;19836;55.812;37.560;2022-08-03T13:12:51;99740.03;;;30.88;38.33
33496;BME280;19836;55.812;37.560;2022-08-03T13:15:18;99740.41;;;30.77;38.49
33496;BME280;19836;55.812;37.560;2022-08-03T13:17:44;99746.63;;;30.71;38.88
33496;BME280;19836;55.812;37.560;2022-08-03T13:20:10;99742.84;;;30.72;39.04
33496;BME280;19836;55.812;37.560;2022-08-03T13:22:36;99734.34;;;30.73;39.44
33496;BME280;19836;55.812;37.560;2022-08-03T13:25:02;99737.47;;;30.70;39.63
33496;BME280;19836;55.812;37.560;2022-08-03T13:27:30;99737.28;;;30.72;39.81
33496;BME280;19836;55.812;37.560;2022-08-03T13:29:56;99739.88;;;30.81;40.08
33496;BME280;19836;55.812;37.560;2022-08-03T13:32:23;99734.34;;;30.89;40.16
33496;BME280;19836;55.812;37.560;2022-08-03T13:34:49;99732.97;;;30.93;39.92
33496;BME280;19836;55.812;37.560;2022-08-03T13:37:16;99743.66;;;31.04;39.56
33496;BME280;19836;55.812;37.560;2022-08-03T13:39:42;99734.97;;;31.15;39.32
33496;BME280;19836;55.812;37.560;2022-08-03T13:42:08;99731.88;;;31.27;37.73
33496;BME280;19836;55.812;37.560;2022-08-03T13:44:34;99737.34;;;31.51;36.05
33496;BME280;19836;55.812;37.560;2022-08-03T13:47:03;99726.41;;;31.96;34.37
33496;BME280;19836;55.812;37.560;2022-08-03T13:49:29;99728.63;;;32.76;32.89
33496;BME280;19836;55.812;37.560;2022-08-03T13:51:55;99717.22;;;32.71;33.02
33496;BME280;19836;55.812;37.560;2022-08-03T13:54:22;99724.38;;;32.65;33.80
33496;BME280;19836;55.812;37.560;2022-08-03T13:56:48;99726.66;;;32.84;32.94
33496;BME280;19836;55.812;37.560;2022-08-03T13:59:23;99724.78;;;33.80;30.96
33496;BME280;19836;55.812;37.560;2022-08-03T14:01:51;99722.72;;;34.59;29.37